CheckWX is a tool to help pilots better visualize weather data.  It is not intended as a substitute for an official pre-flight weather briefing.

01:37:09 UTC

RJFM METAR
Miyazaki Airport
Miyazaki, Japan
Current

37 mins ago

RJFM 190100Z 02012KT 3500 -SHRA BR FEW004 SCT006 BKN010 25/24 Q1008
Observed
Aug-19 @ 01:00 UTC
Wind
  • 020° at 12 KTS
Visibility
3,500 meters
Flight Rules
IFR
Conditions
Light Rain, Mist
Cloud Levels
  • Few at 400' AGL
  • Scattered at 600' AGL
  • Broken at 1,000' AGL
Temperature
25°C / 77°F
Dewpoint
24°C / 75°F
Humidity
94%
Altimeter
29.76" Hg
Pressure
1007.92 hPa
Previous

2 hours ago

RJFM 190000Z 30004KT 3000 -SHRA BR FEW003 SCT008 BKN010 25/24 Q1008
Observed
Aug-19 @ 00:00 UTC
Wind
  • 300° at 4 KTS
Visibility
3,000 meters
Flight Rules
IFR
Conditions
Light Rain, Mist
Cloud Levels
  • Few at 300' AGL
  • Scattered at 800' AGL
  • Broken at 1,000' AGL
Temperature
25°C / 77°F
Dewpoint
24°C / 75°F
Humidity
94%
Altimeter
29.76" Hg
Pressure
1007.92 hPa
Previous

3 hours ago

RJFM 182300Z 31004KT 270V010 1500 R27/1500VP1800D +SHRA BR FEW005 BKN008 BKN015 FEW020CB 25/24 Q1008
Observed
Aug-18 @ 23:00 UTC
Wind
  • 310° at 4 KTS
Visibility
1,500 meters
Flight Rules
LIFR
Conditions
Heavy Rain, Mist
Cloud Levels
  • Few at 500' AGL
  • Broken at 800' AGL
  • Broken at 1,500' AGL
  • Few at 2,000' AGL
Temperature
25°C / 77°F
Dewpoint
24°C / 75°F
Humidity
94%
Altimeter
29.76" Hg
Pressure
1007.92 hPa